Time;durP1;ratioP1;P1;durP2;ratioP2;P2;SDS_P1;SDS_P2;PMS_P1;PMS_P2;Temp;Humidity;BMP_temperature;BMP_pressure;BME280_temperature;BME280_humidity;BME280_pressure;Samples;Min_cycle;Max_cycle;Signal;HPM_P1;HPM_P2
2023/11/08 00:00:07;;;;;;;9.32;5.53;;;;;;;7.29;100.00;100690.00;4904951;29;20032;-74
2023/11/08 00:02:39;;;;;;;9.68;5.65;;;;;;;7.30;100.00;100688.94;4872470;29;20040;-74
2023/11/08 00:05:06;;;;;;;8.88;6.55;;;;;;;7.31;100.00;100689.72;4899572;29;20048;-74
2023/11/08 00:07:34;;;;;;;12.88;6.93;;;;;;;7.30;100.00;100696.94;4907356;29;20056;-75
2023/11/08 00:10:01;;;;;;;9.27;5.97;;;;;;;7.31;100.00;100693.19;4896867;29;20126;-74
2023/11/08 00:12:26;;;;;;;10.50;7.00;;;;;;;7.33;100.00;100691.13;4891376;29;20795;-75
2023/11/08 00:14:53;;;;;;;9.63;7.00;;;;;;;7.35;100.00;100697.00;4879292;29;20032;-77
2023/11/08 00:17:20;;;;;;;11.35;6.90;;;;;;;7.35;100.00;100690.84;4907574;29;20113;-77
2023/11/08 00:19:45;;;;;;;10.63;6.95;;;;;;;7.33;100.00;100680.47;4906857;29;20036;-74
2023/11/08 00:22:11;;;;;;;11.77;7.20;;;;;;;7.34;100.00;100690.06;4903069;29;20028;-76
2023/11/08 00:24:37;;;;;;;9.30;6.65;;;;;;;7.36;100.00;100682.63;4900882;29;20048;-75
2023/11/08 00:27:03;;;;;;;11.27;7.32;;;;;;;7.36;100.00;100693.25;4884617;29;20040;-77
2023/11/08 00:29:28;;;;;;;10.05;6.75;;;;;;;7.36;100.00;100693.25;4891752;29;20040;-75
2023/11/08 00:31:54;;;;;;;15.10;7.55;;;;;;;7.39;100.00;100690.13;4905613;29;20106;-74
2023/11/08 00:34:19;;;;;;;11.45;7.18;;;;;;;7.40;100.00;100685.59;4905855;29;20048;-77
2023/11/08 00:36:48;;;;;;;12.35;8.82;;;;;;;7.39;100.00;100689.31;4886489;29;20044;-75
2023/11/08 00:39:15;;;;;;;13.52;7.88;;;;;;;7.39;100.00;100681.31;4905213;29;21421;-78
2023/11/08 00:41:42;;;;;;;12.05;7.70;;;;;;;7.37;100.00;100683.41;4880666;29;20039;-76
2023/11/08 00:44:09;;;;;;;15.52;7.80;;;;;;;7.36;100.00;100679.94;4873394;29;20053;-75
2023/11/08 00:46:36;;;;;;;14.30;7.75;;;;;;;7.36;100.00;100671.97;4904189;29;20046;-74
2023/11/08 00:49:03;;;;;;;15.90;9.25;;;;;;;7.35;100.00;100666.88;4903981;29;20044;-74
2023/11/08 00:51:31;;;;;;;11.52;7.80;;;;;;;7.37;100.00;100678.88;4888583;29;20032;-74
2023/11/08 00:54:00;;;;;;;10.02;8.10;;;;;;;7.36;100.00;100676.47;4891905;29;20494;-75
2023/11/08 00:56:26;;;;;;;12.23;7.57;;;;;;;7.34;100.00;100674.06;4886275;29;20036;-76
2023/11/08 00:58:52;;;;;;;13.57;7.28;;;;;;;7.35;100.00;100669.53;4888530;29;20039;-74
2023/11/08 01:01:21;;;;;;;11.13;7.70;;;;;;;7.36;100.00;100665.81;4899444;29;20032;-76
2023/11/08 01:03:46;;;;;;;13.43;8.27;;;;;;;7.35;100.00;100673.00;4875983;29;20055;-74
2023/11/08 01:06:13;;;;;;;10.27;7.63;;;;;;;7.36;100.00;100674.63;4873663;29;20454;-75
2023/11/08 01:08:38;;;;;;;14.55;7.90;;;;;;;7.35;100.00;100678.34;4889570;29;20502;-76
2023/11/08 01:11:05;;;;;;;10.20;7.80;;;;;;;7.34;100.00;100674.06;4870320;29;20032;-75
2023/11/08 01:13:31;;;;;;;12.57;8.02;;;;;;;7.35;100.00;100675.69;4883620;29;20502;-75
2023/11/08 01:15:57;;;;;;;13.60;8.23;;;;;;;7.36;100.00;100682.63;4873490;29;20039;-74
2023/11/08 01:18:25;;;;;;;9.70;6.95;;;;;;;7.36;100.00;100677.28;4882693;29;20039;-73
2023/11/08 01:20:51;;;;;;;11.98;8.95;;;;;;;7.41;100.00;100673.06;4877301;29;20550;-74
2023/11/08 01:23:16;;;;;;;14.15;8.05;;;;;;;7.41;100.00;100670.41;4907454;29;20061;-73
2023/11/08 01:25:43;;;;;;;14.60;8.23;;;;;;;7.40;100.00;100664.28;4898734;29;20036;-75
2023/11/08 01:28:09;;;;;;;14.05;9.60;;;;;;;7.43;100.00;100662.97;4886444;29;20041;-74
2023/11/08 01:30:35;;;;;;;11.50;7.82;;;;;;;7.43;100.00;100665.63;4871719;29;20048;-74
2023/11/08 01:33:01;;;;;;;11.73;8.93;;;;;;;7.43;100.00;100665.63;4891238;29;20040;-75
2023/11/08 01:35:26;;;;;;;13.85;8.30;;;;;;;7.44;100.00;100669.91;4887699;29;20063;-74
2023/11/08 01:37:57;;;;;;;13.18;8.25;;;;;;;7.40;100.00;100666.94;4873384;29;20033;-76
2023/11/08 01:40:23;;;;;;;12.90;8.63;;;;;;;7.44;100.00;100667.22;4922451;29;20414;-73
2023/11/08 01:42:49;;;;;;;13.25;8.52;;;;;;;7.42;100.00;100664.03;4874535;29;20051;-74
2023/11/08 01:45:15;;;;;;;13.15;8.00;;;;;;;7.42;100.00;100658.69;4885256;29;20032;-74
2023/11/08 01:47:41;;;;;;;13.18;8.57;;;;;;;7.43;100.00;100661.09;4888462;29;20131;-74
2023/11/08 01:50:09;;;;;;;10.00;7.88;;;;;;;7.42;100.00;100661.38;4891037;29;20032;-74
2023/11/08 01:52:37;;;;;;;11.20;8.40;;;;;;;7.44;100.00;100665.38;4907126;29;20036;-73
2023/11/08 01:55:06;;;;;;;10.73;7.82;;;;;;;7.42;100.00;100654.16;4892031;29;20044;-76
2023/11/08 01:57:32;;;;;;;13.05;8.32;;;;;;;7.42;100.00;100648.03;4886310;29;20042;-75
2023/11/08 01:59:58;;;;;;;;;;;;;;;7.42;100.00;100653.38;4892939;29;20517;-74
2023/11/08 02:02:24;;;;;;;10.75;7.32;;;;;;;7.43;100.00;100660.31;4874292;29;20346;-74
2023/11/08 02:04:53;;;;;;;12.68;8.68;;;;;;;7.41;100.00;100652.56;4887528;29;20566;-73
2023/11/08 02:07:19;;;;;;;11.10;7.65;;;;;;;7.42;100.00;100658.69;4906368;29;20521;-74
2023/11/08 02:09:46;;;;;;;12.60;7.78;;;;;;;7.43;100.00;100670.97;4906534;29;20064;-74
2023/11/08 02:12:12;;;;;;;14.48;8.63;;;;;;;7.43;100.00;100665.63;4888533;29;20042;-74
2023/11/08 02:15:04;;;;;;;11.00;7.80;;;;;;;7.44;100.00;100661.91;4905427;29;20051;-74
2023/11/08 02:17:33;;;;;;;10.13;6.97;;;;;;;7.44;100.00;100662.72;4910694;29;20031;-74
2023/11/08 02:20:03;;;;;;;11.68;8.20;;;;;;;7.44;100.00;100661.91;4889979;29;20032;-75
2023/11/08 02:22:30;;;;;;;8.68;6.78;;;;;;;7.45;100.00;100668.84;4889772;29;20103;-74
2023/11/08 02:24:56;;;;;;;11.38;7.63;;;;;;;7.45;100.00;100675.00;4900777;29;20164;-74
2023/11/08 02:27:21;;;;;;;9.57;7.90;;;;;;;7.46;100.00;100665.94;4899071;29;20040;-75
2023/11/08 02:29:47;;;;;;;12.25;7.82;;;;;;;7.46;100.00;100659.81;4898926;29;20087;-74
2023/11/08 02:32:13;;;;;;;9.80;7.07;;;;;;;7.47;100.00;100666.75;4868099;29;20491;-73
2023/11/08 02:34:39;;;;;;;9.80;6.80;;;;;;;7.45;100.00;100663.50;4891636;29;20155;-74
2023/11/08 02:37:04;;;;;;;7.40;5.85;;;;;;;7.42;100.00;100658.69;4872898;29;20076;-74
2023/11/08 02:39:31;;;;;;;11.20;6.75;;;;;;;7.38;100.00;100659.22;4890082;29;20455;-74
2023/11/08 02:41:58;;;;;;;9.98;6.25;;;;;;;7.34;100.00;100657.28;4890849;29;20036;-74
2023/11/08 02:44:26;;;;;;;8.40;6.07;;;;;;;7.35;100.00;100667.69;4903468;29;20036;-74
2023/11/08 02:46:52;;;;;;;7.45;5.78;;;;;;;7.34;100.00;100667.94;4901547;29;20974;-74
2023/11/08 02:49:18;;;;;;;10.90;6.32;;;;;;;7.32;100.00;100670.88;4871589;29;20131;-74
2023/11/08 02:51:44;;;;;;;7.15;5.35;;;;;;;7.33;100.00;100674.34;4873477;29;20075;-76
2023/11/08 02:54:09;;;;;;;7.97;5.28;;;;;;;7.33;100.00;100672.47;4885465;29;20040;-78
2023/11/08 02:56:40;;;;;;;8.43;6.80;;;;;;;7.33;100.00;100680.47;4885030;29;20119;-75
2023/11/08 02:59:06;;;;;;;8.40;6.10;;;;;;;7.35;100.00;100670.34;4885013;29;20102;-74
2023/11/08 03:01:32;;;;;;;9.80;6.05;;;;;;;7.34;100.00;100663.41;4898240;29;20037;-74
2023/11/08 03:03:58;;;;;;;11.38;6.80;;;;;;;7.35;100.00;100659.69;4905001;29;20560;-73
2023/11/08 03:06:24;;;;;;;8.00;6.35;;;;;;;7.36;100.00;100666.63;4899190;29;20044;-74
2023/11/08 03:08:53;;;;;;;9.95;6.50;;;;;;;7.39;100.00;100673.34;4906199;29;20032;-74
2023/11/08 03:11:19;;;;;;;10.43;6.15;;;;;;;7.41;100.00;100673.06;4904813;29;20036;-74
2023/11/08 03:13:45;;;;;;;8.70;6.70;;;;;;;7.37;100.00;100654.91;4906147;29;20107;-77
2023/11/08 03:16:10;;;;;;;10.25;7.47;;;;;;;7.39;100.00;100676.81;4871976;29;20119;-74
2023/11/08 03:18:36;;;;;;;10.93;6.05;;;;;;;7.42;100.00;100667.50;4880316;29;20131;-74
2023/11/08 03:21:02;;;;;;;8.88;6.60;;;;;;;7.43;100.00;100665.63;4879908;29;20031;-74
2023/11/08 03:23:28;;;;;;;;;;;;;;;7.44;100.00;100670.69;4902059;29;20521;-75
2023/11/08 03:25:56;;;;;;;9.80;6.00;;;;;;;7.45;100.00;100668.84;4897253;29;19915;-74
2023/11/08 03:28:21;;;;;;;7.25;5.70;;;;;;;7.43;100.00;100665.63;4899702;29;20446;-74
2023/11/08 03:30:47;;;;;;;11.57;5.70;;;;;;;7.47;100.00;100666.75;4901037;29;20032;-75
2023/11/08 03:33:12;;;;;;;10.02;5.40;;;;;;;7.47;100.00;100672.09;4872821;29;20052;-75
2023/11/08 03:35:38;;;;;;;7.57;5.22;;;;;;;7.45;100.00;100675.00;4905074;29;20054;-74
2023/11/08 03:38:03;;;;;;;6.57;5.32;;;;;;;7.48;100.00;100671.03;4870490;29;20036;-74
2023/11/08 03:40:29;;;;;;;6.95;5.03;;;;;;;7.49;100.00;100672.63;4885177;29;20032;-74
2023/11/08 03:42:56;;;;;;;8.05;5.05;;;;;;;7.46;100.00;100671.28;4887192;29;20090;-73
2023/11/08 03:45:22;;;;;;;6.75;5.15;;;;;;;7.48;100.00;100673.69;4892817;29;20039;-74
2023/11/08 03:47:48;;;;;;;7.63;5.50;;;;;;;7.49;100.00;100670.75;4886281;29;20176;-74
2023/11/08 03:50:14;;;;;;;7.78;5.40;;;;;;;7.49;100.00;100669.97;4899011;29;20126;-74
2023/11/08 03:52:39;;;;;;;7.80;5.20;;;;;;;7.51;100.00;100673.16;4886659;29;20043;-74
2023/11/08 03:55:06;;;;;;;6.55;5.00;;;;;;;7.48;100.00;100677.16;4902076;29;20379;-75
2023/11/08 03:57:32;;;;;;;8.18;4.97;;;;;;;7.48;100.00;100681.69;4903400;29;20091;-74
2023/11/08 03:59:57;;;;;;;9.25;5.68;;;;;;;7.47;100.00;100683.53;4900884;29;20033;-75
2023/11/08 04:02:24;;;;;;;8.18;6.05;;;;;;;7.45;100.00;100688.31;4902495;29;20080;-74
2023/11/08 04:04:51;;;;;;;8.68;5.20;;;;;;;7.49;100.00;100691.28;4900118;29;20044;-74
2023/11/08 04:07:20;;;;;;;6.15;4.95;;;;;;;7.48;100.00;100700.34;4898561;29;20067;-74
2023/11/08 04:09:46;;;;;;;9.57;6.00;;;;;;;7.46;100.00;100702.44;4885027;29;20124;-74
2023/11/08 04:12:12;;;;;;;;;;;;;;;7.47;100.00;100718.19;4902634;29;20111;-74
2023/11/08 04:14:38;;;;;;;6.75;4.63;;;;;;;7.49;100.00;100715.25;4875236;29;20439;-75
2023/11/08 04:17:05;;;;;;;6.68;4.88;;;;;;;7.49;100.00;100718.72;4900361;29;20055;-74
2023/11/08 04:19:32;;;;;;;6.72;5.40;;;;;;;7.50;100.00;100720.34;4894924;29;20051;-75
2023/11/08 04:21:58;;;;;;;6.20;5.30;;;;;;;7.52;100.00;100722.75;4900688;29;20035;-74
2023/11/08 04:24:23;;;;;;;;;;;;;;;7.51;100.00;100726.47;4901044;29;20502;-74
2023/11/08 04:26:49;;;;;;;13.85;6.00;;;;;;;7.51;100.00;100729.13;4903603;29;20018;-74
2023/11/08 04:29:15;;;;;;;7.50;5.43;;;;;;;7.52;100.00;100728.91;4885715;29;20064;-74
2023/11/08 04:31:40;;;;;;;7.13;5.55;;;;;;;7.54;100.00;100732.13;4874990;29;20040;-73
2023/11/08 04:34:06;;;;;;;8.70;5.53;;;;;;;7.55;100.00;100727.59;4906402;29;20036;-74
2023/11/08 04:36:33;;;;;;;7.75;5.07;;;;;;;7.56;100.00;100734.53;4880850;29;20032;-74
2023/11/08 04:38:59;;;;;;;6.25;4.72;;;;;;;7.58;100.00;100732.41;4893214;29;20072;-74
2023/11/08 04:41:26;;;;;;;7.20;5.35;;;;;;;7.58;100.00;100733.22;4906274;29;20064;-74
2023/11/08 04:43:51;;;;;;;8.88;5.43;;;;;;;7.57;100.00;100725.47;4875227;29;20032;-74
2023/11/08 04:46:17;;;;;;;8.82;5.97;;;;;;;7.57;100.00;100730.81;4873417;29;20043;-74
2023/11/08 04:48:44;;;;;;;8.02;5.05;;;;;;;7.55;100.00;100728.41;4891123;29;20131;-74
2023/11/08 04:51:10;;;;;;;9.07;5.60;;;;;;;7.56;100.00;100734.53;4869281;29;20051;-75
2023/11/08 04:53:36;;;;;;;7.53;4.95;;;;;;;7.55;100.00;100724.94;4907289;29;20060;-73
2023/11/08 04:56:02;;;;;;;7.55;5.97;;;;;;;7.56;100.00;100721.19;4891285;29;20067;-74
2023/11/08 04:58:29;;;;;;;8.40;6.18;;;;;;;7.56;100.00;100723.88;4881708;29;20044;-74
2023/11/08 05:00:55;;;;;;;8.52;5.47;;;;;;;7.54;100.00;100720.66;4891585;29;20075;-73
2023/11/08 05:03:20;;;;;;;9.63;6.80;;;;;;;7.55;100.00;100727.59;4891348;29;20071;-74
2023/11/08 05:05:46;;;;;;;10.52;5.90;;;;;;;7.56;100.00;100723.88;4904361;29;20040;-74
2023/11/08 05:08:12;;;;;;;7.75;5.95;;;;;;;7.55;100.00;100719.59;4890446;29;20123;-74
2023/11/08 05:10:38;;;;;;;8.13;6.25;;;;;;;7.55;100.00;100727.59;4901083;29;20084;-74
2023/11/08 05:13:05;;;;;;;8.98;6.68;;;;;;;7.56;100.00;100732.66;4900112;29;20141;-74
2023/11/08 05:15:31;;;;;;;10.15;6.45;;;;;;;7.56;100.00;100731.88;4903426;29;20047;-74
2023/11/08 05:17:57;;;;;;;10.35;6.82;;;;;;;7.56;100.00;100730.00;4901192;29;20040;-74
2023/11/08 05:20:25;;;;;;;8.18;5.78;;;;;;;7.58;100.00;100729.75;4876231;29;20498;-73
2023/11/08 05:22:51;;;;;;;10.35;6.75;;;;;;;7.58;100.00;100727.88;4902310;29;20042;-74
2023/11/08 05:25:16;;;;;;;8.52;5.68;;;;;;;7.60;100.00;100728.47;4890734;29;20048;-75
2023/11/08 05:27:43;;;;;;;10.10;6.47;;;;;;;7.60;100.00;100725.78;4890352;29;20036;-74
2023/11/08 05:30:09;;;;;;;10.68;7.40;;;;;;;7.61;100.00;100732.72;4903172;29;20043;-75
2023/11/08 05:32:35;;;;;;;;;;;;;;;7.62;100.00;100729.00;4906852;29;20122;-73
2023/11/08 05:35:02;;;;;;;8.60;6.70;;;;;;;7.61;100.00;100742.59;4908952;29;20338;-74
2023/11/08 05:37:28;;;;;;;9.75;7.25;;;;;;;7.63;100.00;100745.78;4898656;29;20040;-74
2023/11/08 05:39:54;;;;;;;10.95;7.15;;;;;;;7.64;100.00;100745.53;4902987;29;20502;-74
2023/11/08 05:42:22;;;;;;;9.20;6.65;;;;;;;7.65;100.00;100749.84;4868733;29;20091;-74
2023/11/08 05:44:50;;;;;;;9.40;6.97;;;;;;;7.64;100.00;100745.53;4903358;29;20037;-74
2023/11/08 05:47:16;;;;;;;9.68;6.43;;;;;;;7.64;100.00;100750.88;4903014;29;20040;-74
2023/11/08 05:49:42;;;;;;;;;;;;;;;7.64;100.00;100745.53;4906016;29;20028;-76
2023/11/08 05:52:08;;;;;;;9.82;6.22;;;;;;;7.66;100.00;100743.47;4891234;29;19927;-74
2023/11/08 05:54:35;;;;;;;9.55;5.90;;;;;;;7.66;100.00;100742.66;4871866;29;20040;-73
2023/11/08 05:57:01;;;;;;;9.93;6.97;;;;;;;7.66;100.00;100755.97;4906796;29;20051;-73
2023/11/08 05:59:28;;;;;;;11.00;7.38;;;;;;;7.66;100.00;100755.97;4900564;29;20063;-75
2023/11/08 06:01:54;;;;;;;10.20;6.30;;;;;;;7.66;100.00;100758.66;4906838;29;20068;-74
2023/11/08 06:04:20;;;;;;;10.02;7.13;;;;;;;7.67;100.00;100757.59;4899378;29;20071;-74
2023/11/08 06:06:46;;;;;;;10.73;7.10;;;;;;;7.67;100.00;100762.91;4906127;29;20062;-74
2023/11/08 06:09:14;;;;;;;7.80;6.28;;;;;;;7.67;100.00;100760.25;4888734;29;20032;-75
2023/11/08 06:11:41;;;;;;;11.35;6.22;;;;;;;7.64;100.00;100763.41;4872385;29;20458;-74
2023/11/08 06:14:06;;;;;;;;;;;;;;;7.62;100.00;100768.19;4889923;29;20954;-75
2023/11/08 06:16:32;;;;;;;8.38;6.28;;;;;;;7.57;100.00;100773.44;4888869;29;19931;-74
2023/11/08 06:18:58;;;;;;;11.05;6.85;;;;;;;7.55;100.00;100776.38;4903956;29;20075;-75
2023/11/08 06:21:23;;;;;;;9.23;6.47;;;;;;;7.56;100.00;100771.84;4903019;29;20053;-75
2023/11/08 06:23:49;;;;;;;7.50;6.20;;;;;;;7.54;100.00;100774.75;4888866;29;20087;-74
2023/11/08 06:26:15;;;;;;;9.40;6.20;;;;;;;7.52;100.00;100776.88;4890515;29;20034;-74
2023/11/08 06:28:42;;;;;;;10.57;6.10;;;;;;;7.50;100.00;100775.50;4903817;29;20048;-74
2023/11/08 06:31:08;;;;;;;9.80;6.40;;;;;;;7.50;100.00;100780.81;4887257;29;20802;-74
2023/11/08 06:33:34;;;;;;;;;;;;;;;7.49;100.00;100772.03;4889394;29;20048;-74
2023/11/08 06:36:00;;;;;;;10.38;6.50;;;;;;;7.50;100.00;100775.50;4906756;29;20012;-74
2023/11/08 06:38:30;;;;;;;10.50;6.88;;;;;;;7.49;100.00;100764.03;4888578;29;20538;-74
2023/11/08 06:40:57;;;;;;;8.10;6.65;;;;;;;7.52;100.00;100776.03;4889299;29;20083;-75
2023/11/08 06:43:24;;;;;;;10.20;6.80;;;;;;;7.53;100.00;100781.16;4890105;29;20040;-74
2023/11/08 06:45:50;;;;;;;9.93;6.50;;;;;;;7.52;100.00;100773.38;4887271;29;20048;-75
2023/11/08 06:48:15;;;;;;;10.48;5.97;;;;;;;7.54;100.00;100789.94;4888612;29;20035;-74
2023/11/08 06:50:43;;;;;;;10.43;5.72;;;;;;;7.54;100.00;100797.94;4890373;29;20513;-74
2023/11/08 06:53:12;;;;;;;10.40;6.40;;;;;;;7.54;100.00;100793.41;4891329;29;20078;-75
2023/11/08 06:55:38;;;;;;;10.35;6.22;;;;;;;7.56;100.00;100793.97;4903122;29;20184;-75
2023/11/08 06:58:05;;;;;;;7.72;5.57;;;;;;;7.58;100.00;100801.69;4879459;29;20122;-75
2023/11/08 07:00:33;;;;;;;10.48;6.35;;;;;;;7.58;100.00;100799.03;4888292;29;20035;-74
2023/11/08 07:02:59;;;;;;;10.93;6.15;;;;;;;7.57;100.00;100806.22;4888355;29;20079;-75
2023/11/08 07:05:25;;;;;;;11.15;5.65;;;;;;;7.57;100.00;100813.41;4904003;29;20076;-74
2023/11/08 07:07:50;;;;;;;8.38;5.45;;;;;;;7.53;100.00;100813.13;4903941;29;20032;-74
2023/11/08 07:10:16;;;;;;;8.95;4.80;;;;;;;7.52;100.00;100813.34;4870131;29;20083;-74
2023/11/08 07:12:43;;;;;;;7.35;5.10;;;;;;;7.51;100.00;100817.06;4888672;29;20035;-74
2023/11/08 07:15:12;;;;;;;8.85;5.03;;;;;;;7.49;100.00;100813.84;4898415;29;20036;-74
2023/11/08 07:17:37;;;;;;;6.80;5.13;;;;;;;7.48;100.00;100817.56;4881754;29;20103;-74
2023/11/08 07:20:07;;;;;;;6.15;5.18;;;;;;;7.48;100.00;100823.72;4906031;29;20036;-73
2023/11/08 07:22:35;;;;;;;7.05;5.85;;;;;;;7.50;100.00;100820.78;4896351;29;20040;-74
2023/11/08 07:25:02;;;;;;;7.28;4.82;;;;;;;7.53;100.00;100831.78;4855637;29;20103;-74
2023/11/08 07:27:28;;;;;;;6.35;4.95;;;;;;;7.57;100.00;100822.22;4899980;29;20045;-74
2023/11/08 07:29:53;;;;;;;8.20;4.82;;;;;;;7.61;100.00;100822.53;4902180;29;20051;-75
2023/11/08 07:32:20;;;;;;;6.68;4.80;;;;;;;7.65;100.00;100820.97;4902693;29;20040;-74
2023/11/08 07:34:45;;;;;;;6.50;4.40;;;;;;;7.69;100.00;100832.78;4900668;29;20132;-74
2023/11/08 07:37:13;;;;;;;8.60;5.40;;;;;;;7.73;100.00;100825.09;4902637;29;20039;-74
2023/11/08 07:39:40;;;;;;;7.00;5.82;;;;;;;7.81;100.00;100832.66;4904425;29;20032;-74
2023/11/08 07:42:07;;;;;;;6.45;4.88;;;;;;;7.86;100.00;100841.53;4900023;29;20123;-73
2023/11/08 07:44:33;;;;;;;9.68;5.80;;;;;;;7.88;100.00;100844.75;4876263;29;20040;-73
2023/11/08 07:46:59;;;;;;;6.57;4.57;;;;;;;7.88;100.00;100849.25;4902581;29;20067;-73
2023/11/08 07:49:24;;;;;;;7.20;5.38;;;;;;;7.91;100.00;100859.41;4900299;29;20044;-73
2023/11/08 07:51:51;;;;;;;8.13;5.50;;;;;;;7.94;100.00;100865.06;4885965;29;20825;-74
2023/11/08 07:54:17;;;;;;;7.38;5.85;;;;;;;7.97;100.00;100847.75;4889820;29;20145;-73
2023/11/08 07:56:44;;;;;;;8.27;6.03;;;;;;;8.04;100.00;100863.56;4905376;29;20494;-74
2023/11/08 07:59:10;;;;;;;8.15;4.88;;;;;;;8.15;100.00;100870.66;4887406;29;20095;-74
2023/11/08 08:01:35;;;;;;;7.57;6.05;;;;;;;8.24;100.00;100863.78;4902421;29;20517;-73
2023/11/08 08:04:03;;;;;;;7.03;4.88;;;;;;;8.32;100.00;100870.53;4885597;29;20048;-73
2023/11/08 08:06:29;;;;;;;7.30;4.95;;;;;;;8.35;100.00;100876.22;4872691;29;20040;-73
2023/11/08 08:08:57;;;;;;;8.23;5.20;;;;;;;8.35;100.00;100873.56;4888049;29;20043;-74
2023/11/08 08:11:22;;;;;;;8.20;5.03;;;;;;;8.31;100.00;100872.41;4874810;29;20513;-74
2023/11/08 08:13:48;;;;;;;7.95;5.13;;;;;;;8.28;100.00;100872.94;4907419;29;20036;-73
2023/11/08 08:16:15;;;;;;;7.65;5.80;;;;;;;8.26;100.00;100867.00;4907732;29;20036;-73
2023/11/08 08:18:45;;;;;;;8.13;6.18;;;;;;;8.26;100.00;100872.34;4888836;29;20443;-74
2023/11/08 08:21:11;;;;;;;7.82;5.90;;;;;;;8.31;100.00;100874.28;4892572;29;20032;-73
2023/11/08 08:23:37;;;;;;;7.65;5.50;;;;;;;8.29;100.00;100876.41;4917482;29;20086;-74
2023/11/08 08:26:03;;;;;;;7.05;4.90;;;;;;;8.28;100.00;100877.47;4906249;29;20114;-75
2023/11/08 08:28:35;;;;;;;6.03;4.68;;;;;;;8.28;100.00;100872.94;4904420;29;20044;-72
2023/11/08 08:31:02;;;;;;;7.10;5.10;;;;;;;8.28;100.00;100869.44;4905531;29;20037;-74
2023/11/08 08:33:27;;;;;;;5.85;4.72;;;;;;;8.32;100.00;100868.69;4890281;29;20068;-75
2023/11/08 08:35:53;;;;;;;7.82;4.32;;;;;;;8.37;100.00;100871.44;4892662;29;20071;-73
2023/11/08 08:38:19;;;;;;;6.38;4.30;;;;;;;8.49;100.00;100879.31;4904226;29;20533;-74
2023/11/08 08:40:49;;;;;;;;;;;;;;;8.55;100.00;100886.31;4890253;29;20178;-74
2023/11/08 08:43:15;;;;;;;5.38;4.57;;;;;;;8.57;100.00;100876.19;4889439;29;19958;-73
2023/11/08 08:45:41;;;;;;;8.95;4.72;;;;;;;8.58;100.00;100871.63;4890371;29;20041;-75
2023/11/08 08:48:06;;;;;;;7.88;4.88;;;;;;;8.57;100.00;100880.72;4900179;29;20312;-74
2023/11/08 08:50:33;;;;;;;6.47;5.63;;;;;;;8.54;100.00;100890.03;4902382;29;20123;-73
2023/11/08 08:52:58;;;;;;;8.70;4.95;;;;;;;8.56;100.00;100890.59;4902567;29;20036;-74
2023/11/08 08:55:24;;;;;;;10.73;5.40;;;;;;;8.57;100.00;100876.19;4891809;29;20115;-73
2023/11/08 08:57:51;;;;;;;9.35;5.38;;;;;;;8.61;100.00;100889.84;4907774;29;20033;-74
2023/11/08 09:00:18;;;;;;;7.38;5.38;;;;;;;8.63;100.00;100898.38;4890440;29;20111;-74
2023/11/08 09:02:44;;;;;;;8.13;6.13;;;;;;;8.61;100.00;100895.19;4892438;29;20044;-75
2023/11/08 09:05:10;;;;;;;8.43;4.82;;;;;;;8.57;100.00;100886.03;4893946;29;20048;-74
2023/11/08 09:07:38;;;;;;;9.05;5.50;;;;;;;8.56;100.00;100898.59;4889246;29;20044;-73
2023/11/08 09:10:04;;;;;;;7.88;4.80;;;;;;;8.58;100.00;100901.00;4885227;29;20143;-74
2023/11/08 09:12:30;;;;;;;9.27;5.78;;;;;;;8.60;100.00;100907.72;4888587;29;20044;-74
2023/11/08 09:14:56;;;;;;;8.48;6.63;;;;;;;8.59;100.00;100919.44;4905538;29;20039;-74
2023/11/08 09:17:23;;;;;;;8.52;6.13;;;;;;;8.59;100.00;100924.78;4889434;29;20046;-73
2023/11/08 09:19:49;;;;;;;11.32;6.57;;;;;;;8.56;100.00;100919.16;4903165;29;20032;-74
2023/11/08 09:22:15;;;;;;;10.40;6.15;;;;;;;8.56;100.00;100927.16;4906558;29;20570;-74
2023/11/08 09:24:41;;;;;;;10.10;6.63;;;;;;;8.53;100.00;100928.44;4891660;29;20399;-73
2023/11/08 09:27:09;;;;;;;13.15;7.35;;;;;;;8.54;100.00;100942.63;4904595;29;20080;-74
2023/11/08 09:29:37;;;;;;;10.40;7.20;;;;;;;8.53;100.00;100930.31;4902902;29;20059;-74
2023/11/08 09:32:04;;;;;;;9.95;6.85;;;;;;;8.54;100.00;100942.63;4889990;29;20029;-74
2023/11/08 09:34:33;;;;;;;9.88;6.72;;;;;;;8.56;100.00;100940.50;4908665;29;20418;-74
2023/11/08 09:37:00;;;;;;;10.57;6.20;;;;;;;8.55;100.00;100944.22;4891653;29;20055;-74
2023/11/08 09:39:31;;;;;;;11.00;6.15;;;;;;;8.55;100.00;100941.56;4909190;29;20062;-74
2023/11/08 09:41:57;;;;;;;8.75;5.45;;;;;;;8.54;100.00;100939.94;4905869;29;20032;-74
2023/11/08 09:44:26;;;;;;;;;;;;;;;8.56;100.00;100946.63;4890181;29;20040;-74
2023/11/08 09:46:56;;;;;;;11.75;6.70;;;;;;;8.57;100.00;100940.25;4902949;29;19915;-74
2023/11/08 09:49:25;;;;;;;10.40;6.72;;;;;;;8.55;100.00;100945.03;4858162;29;20051;-77
2023/11/08 09:51:52;;;;;;;9.90;6.07;;;;;;;8.57;100.00;100936.78;4883400;29;20044;-75
2023/11/08 09:54:18;;;;;;;10.38;6.22;;;;;;;8.56;100.00;100940.50;4877558;29;20047;-74
2023/11/08 09:56:44;;;;;;;10.52;7.15;;;;;;;8.59;100.00;100940.78;4870735;29;20035;-76
2023/11/08 09:59:13;;;;;;;9.63;6.45;;;;;;;8.64;100.00;100935.50;4888165;29;20551;-77
2023/11/08 10:01:40;;;;;;;11.80;7.13;;;;;;;8.70;100.00;100941.72;4901115;29;20058;-74
2023/11/08 10:04:10;;;;;;;8.85;5.90;;;;;;;8.71;100.00;100944.13;4905396;29;20052;-76
2023/11/08 10:06:36;;;;;;;11.27;7.30;;;;;;;8.71;100.00;100943.31;4899786;29;20410;-74
2023/11/08 10:09:05;;;;;;;9.55;6.60;;;;;;;8.74;100.00;100943.63;4901897;29;20044;-75
2023/11/08 10:11:34;;;;;;;9.70;6.45;;;;;;;8.77;100.00;100941.50;4883978;29;20051;-75
2023/11/08 10:14:00;;;;;;;11.25;6.18;;;;;;;8.77;100.00;100944.19;4903865;29;20064;-77
2023/11/08 10:16:27;;;;;;;13.40;6.78;;;;;;;8.78;100.00;100943.91;4892437;29;20131;-75
2023/11/08 10:18:57;;;;;;;14.05;7.00;;;;;;;8.81;100.00;100943.44;4886860;29;20043;-77
2023/11/08 10:21:25;;;;;;;9.40;6.60;;;;;;;8.83;100.00;100940.50;4890272;29;20033;-76
2023/11/08 10:23:52;;;;;;;12.60;7.07;;;;;;;8.86;100.00;100946.13;4888566;29;20549;-76
2023/11/08 10:26:21;;;;;;;12.07;6.80;;;;;;;8.91;100.00;100940.84;4888052;29;20044;-74
2023/11/08 10:29:05;;;;;;;10.35;7.40;;;;;;;8.99;100.00;100929.69;4903936;29;20051;-75
2023/11/08 10:31:39;;;;;;;10.40;6.00;;;;;;;9.11;100.00;100926.06;4899500;29;20048;-73
2023/11/08 10:34:07;;;;;;;12.77;6.65;;;;;;;9.16;100.00;100929.56;4907098;29;20730;-74
2023/11/08 10:36:33;;;;;;;12.15;6.88;;;;;;;9.26;100.00;100910.13;4903667;29;20036;-75
2023/11/08 10:38:59;;;;;;;12.95;6.47;;;;;;;9.36;100.00;100906.75;4906668;29;20028;-74
2023/11/08 10:41:27;;;;;;;8.88;5.25;;;;;;;9.47;100.00;100903.84;4901833;29;20099;-75
2023/11/08 10:44:12;;;;;;;10.57;6.80;;;;;;;9.58;100.00;100907.41;4904124;29;20048;-76
2023/11/08 10:46:39;;;;;;;13.00;7.70;;;;;;;9.61;100.00;100904.19;4901481;29;20043;-74
2023/11/08 10:49:08;;;;;;;7.80;6.00;;;;;;;9.63;100.00;100909.31;4902822;29;20036;-73
2023/11/08 10:51:39;;;;;;;9.82;6.63;;;;;;;9.69;100.00;100908.28;4899992;29;20581;-73
2023/11/08 10:54:06;;;;;;;10.23;5.78;;;;;;;9.81;100.00;100914.19;4888814;29;20470;-74
2023/11/08 10:56:32;;;;;;;11.27;5.63;;;;;;;9.91;100.00;100916.13;4905704;29;20988;-75
2023/11/08 10:59:03;;;;;;;10.05;6.20;;;;;;;9.95;100.00;100915.34;4869462;29;20099;-74
2023/11/08 11:01:31;;;;;;;15.18;6.95;;;;;;;10.01;100.00;100913.50;4897981;29;20521;-74
2023/11/08 11:04:04;;;;;;;11.05;5.75;;;;;;;10.07;100.00;100907.09;4898701;29;20043;-73
2023/11/08 11:06:33;;;;;;;10.77;5.95;;;;;;;10.06;100.00;100911.66;4873836;29;20056;-74
2023/11/08 11:09:02;;;;;;;9.75;5.72;;;;;;;10.08;100.00;100914.84;4867218;29;20060;-74
2023/11/08 11:11:31;;;;;;;8.52;6.00;;;;;;;10.08;100.00;100919.41;4887814;29;20075;-73
2023/11/08 11:14:07;;;;;;;11.32;5.72;;;;;;;10.06;100.00;100917.00;4904952;29;20040;-75
2023/11/08 11:16:39;;;;;;;10.05;5.53;;;;;;;10.06;100.00;100914.31;4871877;29;20908;-74
2023/11/08 11:19:16;;;;;;;9.38;5.00;;;;;;;10.03;100.00;100914.06;4887829;29;20486;-74
2023/11/08 11:21:51;;;;;;;6.15;5.55;;;;;;;10.04;100.00;100904.97;4889413;29;20517;-73